»·PEaware :: N2149W KASE-KEGE

N2149W :: KASE-KEGE

FLIGHT INFORMATION

Flight Status: Arrived
Operator: Privately registered:
United States
More flights under this callsign
Pilot: Alex C. (14758)
Aircraft: CESSNA 206 STATIONAIR
(C206)
More flights by this aircraft type
Origin: KASE Aspen-Pitkin Co/Sardy
United States
Destination: KEGE Eagle Co Regl
United States
More flights between these airports :: More routes between these airports
Route: +LINDZ9 RLG
File this flight plan on PilotEdge
Remarks:
Altitude:
(Current/Filed)
16,000ft
Speed:
(Current/Filed)
140kts
Departed: 18-Oct-18 06:45 PM
Arrived: 18-Oct-18 07:30 PM
Distance/Time
Traveled:
25nm/0:45
Distance/Time
To Go:
Arrived

Flight Plot

Page will automatically refresh every two minutes.

Flight plan parsing failed; only flown route is shown


Map Options




Map Legend


Flown Route
Filed Route
Departure Airport
Arrival Airport
Navaid (VOR, NDB)
Fix

Horizontal Profiles

Position Reports

Time Latitude Longitude Heading Altitude Ground
Speed
18-Oct-18 18:34 39.221671 -106.866557 249 7839ft 0kts
18-Oct-18 18:35 39.221671 -106.866557 249 7839ft 0kts
18-Oct-18 18:36 39.221671 -106.866557 249 7839ft 0kts
18-Oct-18 18:37 39.221671 -106.866557 249 7839ft 0kts
18-Oct-18 18:38 39.221671 -106.866557 249 7839ft 0kts
18-Oct-18 18:39 39.221671 -106.866557 249 7839ft 0kts
18-Oct-18 18:40 39.221671 -106.866557 249 7839ft 0kts
18-Oct-18 18:41 39.221352 -106.866729 179 7839ft 9kts
18-Oct-18 18:42 39.217055 -106.864737 161 7839ft 25kts
18-Oct-18 18:43 39.212781 -106.862684 159 7839ft 14kts
18-Oct-18 18:44 39.212165 -106.862505 205 7839ft 0kts
18-Oct-18 18:45 39.212165 -106.862504 205 7839ft 0kts
18-Oct-18 18:46 39.212139 -106.862520 205 7839ft 2kts
18-Oct-18 18:47 39.219077 -106.866391 347 7981ft 90kts
18-Oct-18 18:48 39.241923 -106.869185 351 9026ft 107kts
18-Oct-18 18:49 39.256047 -106.888325 282 10120ft 102kts
18-Oct-18 18:50 39.261273 -106.918127 281 11261ft 99kts
18-Oct-18 18:51 39.266141 -106.947432 281 12281ft 99kts
18-Oct-18 18:52 39.271558 -106.978518 281 13317ft 100kts
18-Oct-18 18:53 39.282146 -107.005629 306 14252ft 103kts
18-Oct-18 18:54 39.298099 -107.029593 302 15110ft 100kts
18-Oct-18 18:55 39.312710 -107.054489 297 15944ft 100kts
18-Oct-18 18:56 39.330603 -107.087033 316 16007ft 152kts
18-Oct-18 18:57 39.358509 -107.120745 310 16003ft 163kts
18-Oct-18 18:58 39.387728 -107.151693 347 15992ft 166kts
18-Oct-18 18:59 39.425170 -107.132345 23 15993ft 175kts
18-Oct-18 19:00 39.460671 -107.108154 24 15987ft 176kts
18-Oct-18 19:01 39.495298 -107.084256 24 15981ft 177kts
18-Oct-18 19:02 39.530998 -107.059538 24 15976ft 178kts
18-Oct-18 19:03 39.568025 -107.033854 24 15995ft 179kts
18-Oct-18 19:04 39.599638 -107.011885 24 15995ft 179kts
18-Oct-18 19:05 39.639110 -106.988355 8 15995ft 174kts
18-Oct-18 19:06 39.666015 -106.980445 7 15995ft 173kts
18-Oct-18 19:07 39.705269 -106.968984 7 15995ft 173kts
18-Oct-18 19:08 39.734256 -106.946672 28 15995ft 177kts
18-Oct-18 19:09 39.772666 -106.913164 28 15995ft 176kts
18-Oct-18 19:10 39.799453 -106.889470 28 15995ft 175kts
18-Oct-18 19:11 39.831392 -106.860912 28 15995ft 173kts
18-Oct-18 19:12 39.864013 -106.831445 28 15995ft 172kts
18-Oct-18 19:13 39.895994 -106.802084 35 15991ft 172kts
18-Oct-18 19:14 39.905274 -106.752630 78 15995ft 181kts
18-Oct-18 19:15 39.910367 -106.703068 78 15995ft 181kts
18-Oct-18 19:16 39.904766 -106.655074 149 15855ft 185kts
18-Oct-18 19:17 39.868156 -106.641645 162 15389ft 182kts
18-Oct-18 19:18 39.833886 -106.619835 153 14697ft 179kts
18-Oct-18 19:19 39.796104 -106.605798 196 13991ft 166kts
18-Oct-18 19:20 39.759487 -106.618978 198 13038ft 165kts
18-Oct-18 19:21 39.724512 -106.632254 197 12257ft 160kts
18-Oct-18 19:22 39.695240 -106.650589 244 12092ft 123kts
18-Oct-18 19:23 39.683576 -106.686431 250 11806ft 133kts
18-Oct-18 19:24 39.672307 -106.724524 250 11350ft 132kts
18-Oct-18 19:25 39.664221 -106.760928 260 10785ft 123kts
18-Oct-18 19:26 39.659422 -106.794061 260 10353ft 107kts
18-Oct-18 19:27 39.655036 -106.824756 262 9634ft 98kts
18-Oct-18 19:28 39.651543 -106.848559 261 8895ft 66kts
18-Oct-18 19:29 39.648474 -106.868441 257 8055ft 67kts
18-Oct-18 19:30 39.645965 -106.887268 264 7283ft 66kts
18-Oct-18 19:31 39.643450 -106.911201 264 6565ft 78kts
18-Oct-18 19:32 39.641994 -106.924183 256 6549ft 24kts

Navigation Log

Ident Type
Flight plan parsing failed, navigation log unavailable